createdAt,value
2023-05-09T00:00:23.986Z,4.04
2023-05-09T00:01:23.780Z,3.93
2023-05-09T00:02:23.922Z,4.28
2023-05-09T00:03:23.826Z,4.05
2023-05-09T00:04:24.287Z,4.12
2023-05-09T00:05:24.269Z,4.26
2023-05-09T00:06:24.086Z,3.92
2023-05-09T00:07:24.050Z,3.94
2023-05-09T00:08:23.863Z,3.81
2023-05-09T00:09:23.908Z,3.72
2023-05-09T00:10:23.930Z,3.92
2023-05-09T00:11:23.971Z,3.95
2023-05-09T00:12:23.994Z,3.68
2023-05-09T00:13:24.159Z,3.95
2023-05-09T00:14:24.032Z,3.95
2023-05-09T00:15:24.224Z,3.79
2023-05-09T00:16:24.125Z,3.7
2023-05-09T00:17:24.312Z,3.98
2023-05-09T00:18:24.144Z,4.31
2023-05-09T00:19:26.238Z,4.42
2023-05-09T00:20:24.144Z,4.48
2023-05-09T00:21:24.115Z,3.98
2023-05-09T00:22:24.119Z,3.8
2023-05-09T00:23:24.128Z,3.67
2023-05-09T00:24:24.130Z,3.71
2023-05-09T00:25:24.607Z,3.48
2023-05-09T00:26:24.167Z,3.76
2023-05-09T00:27:24.210Z,3.58
2023-05-09T00:28:24.200Z,3.59
2023-05-09T00:29:24.225Z,3.93
2023-05-09T00:30:24.245Z,4.03
2023-05-09T00:31:24.266Z,3.48
2023-05-09T00:32:24.376Z,3.9
2023-05-09T00:33:24.282Z,3.52
2023-05-09T00:34:24.341Z,3.43
2023-05-09T00:35:24.322Z,3.58
2023-05-09T00:36:24.336Z,3.43
2023-05-09T00:37:24.609Z,3.3
2023-05-09T00:38:24.363Z,3.27
2023-05-09T00:39:24.356Z,3.37
2023-05-09T00:40:24.410Z,3.43
2023-05-09T00:41:24.516Z,3.41
2023-05-09T00:42:24.495Z,3.93
2023-05-09T00:43:24.499Z,3.64
2023-05-09T00:44:24.969Z,3.85
2023-05-09T00:45:25.154Z,3.8
2023-05-09T00:46:25.197Z,3.81
2023-05-09T00:47:25.395Z,3.7
2023-05-09T00:48:25.036Z,4.06
2023-05-09T00:49:25.069Z,4.18
2023-05-09T00:50:25.051Z,4.3
2023-05-09T00:51:25.278Z,4.1
2023-05-09T00:52:25.649Z,4.09
2023-05-09T00:53:25.070Z,4
2023-05-09T00:54:25.708Z,3.9
2023-05-09T00:55:26.118Z,4.33
2023-05-09T00:56:25.321Z,3.96
2023-05-09T00:57:25.206Z,4.25
2023-05-09T00:58:25.462Z,4.22
2023-05-09T00:59:25.201Z,3.69
2023-05-09T01:00:25.364Z,3.25
2023-05-09T01:01:25.364Z,3.32
2023-05-09T01:02:25.544Z,3.52
2023-05-09T01:03:25.983Z,3.48
2023-05-09T01:04:26.088Z,3.58
2023-05-09T01:05:30.295Z,3.72
2023-05-09T01:07:33.284Z,4.15
2023-05-09T01:16:52.112Z,3.52
2023-05-09T01:17:59.765Z,3.56
2023-05-09T01:18:55.721Z,3.65
2023-05-09T01:19:57.108Z,3.74
2023-05-09T01:21:00.424Z,3.85
2023-05-09T01:21:58.056Z,3.58
2023-05-09T01:26:14.275Z,3.71
2023-05-09T01:28:13.884Z,3.94
2023-05-09T01:30:16.163Z,3.85
2023-05-09T01:31:16.695Z,3.68
2023-05-09T01:32:17.702Z,3.89
2023-05-09T01:33:19.142Z,3.82
2023-05-09T01:34:17.974Z,3.31
2023-05-09T01:35:16.510Z,2.93
2023-05-09T01:36:16.999Z,3.08
2023-05-09T01:37:18.496Z,3.91
2023-05-09T01:38:17.700Z,4.2
2023-05-09T01:39:17.746Z,3.9
2023-05-09T01:40:17.563Z,3.6
2023-05-09T01:41:17.490Z,3.48
2023-05-09T01:42:18.479Z,3.31
2023-05-09T01:43:17.559Z,3.08
2023-05-09T01:44:16.676Z,2.93
2023-05-09T01:45:16.633Z,2.87
2023-05-09T01:46:21.861Z,2.94
2023-05-09T01:47:19.597Z,3.28
2023-05-09T01:48:18.577Z,3.55
2023-05-09T01:49:20.160Z,3.88
2023-05-09T01:50:18.832Z,3.67
2023-05-09T01:51:19.316Z,3.68
2023-05-09T01:52:19.664Z,3.78
2023-05-09T01:53:19.784Z,4.08
2023-05-09T01:54:20.548Z,4.25
2023-05-09T01:55:19.235Z,4.25
2023-05-09T01:56:18.874Z,4.19
2023-05-09T01:57:19.191Z,4.17
2023-05-09T01:58:20.155Z,4.06
2023-05-09T01:59:19.660Z,3.68
2023-05-09T02:00:19.620Z,3.47
2023-05-09T02:01:19.776Z,3.53
2023-05-09T02:02:19.190Z,3.59
2023-05-09T02:03:19.244Z,3.73
2023-05-09T02:04:19.089Z,3.72
2023-05-09T02:05:19.983Z,3.54
2023-05-09T02:06:20.615Z,3.03
2023-05-09T02:07:19.555Z,2.78
2023-05-09T02:08:19.390Z,2.81
2023-05-09T02:09:19.884Z,2.93
2023-05-09T02:10:20.316Z,3.01
2023-05-09T02:11:18.969Z,3.3
2023-05-09T02:12:19.174Z,3.49
2023-05-09T02:13:19.093Z,3.61
2023-05-09T02:14:19.038Z,3.59
2023-05-09T02:15:19.353Z,3.53
2023-05-09T02:16:20.648Z,3.53
2023-05-09T02:17:19.070Z,3.57
2023-05-09T02:18:19.094Z,3.41
2023-05-09T02:19:19.093Z,3.52
2023-05-09T02:20:19.201Z,3.62
2023-05-09T02:21:19.202Z,3.74
2023-05-09T02:22:19.189Z,3.6
2023-05-09T02:23:19.749Z,3.62
2023-05-09T02:24:19.197Z,3.74
2023-05-09T02:25:19.540Z,3.59
2023-05-09T02:26:19.502Z,3.62
2023-05-09T02:27:20.194Z,3.64
2023-05-09T02:28:20.851Z,3.66
2023-05-09T02:29:21.271Z,3.53
2023-05-09T02:30:21.085Z,3.43
2023-05-09T02:31:21.225Z,3.44
2023-05-09T02:32:21.788Z,3.22
2023-05-09T02:33:19.326Z,3.29
2023-05-09T02:34:19.847Z,3.35
2023-05-09T02:35:20.229Z,3.78
2023-05-09T02:36:19.675Z,3.78
2023-05-09T02:37:20.455Z,3.18
2023-05-09T02:38:19.887Z,2.85
2023-05-09T02:39:19.480Z,2.73
2023-05-09T02:40:20.472Z,2.81
2023-05-09T02:41:19.612Z,2.69
2023-05-09T02:42:22.977Z,2.68
2023-05-09T02:43:19.674Z,2.66
2023-05-09T02:44:19.623Z,2.63
2023-05-09T02:45:19.642Z,2.7
2023-05-09T02:46:19.718Z,2.7
2023-05-09T02:47:20.103Z,2.71
2023-05-09T02:48:19.951Z,2.72
2023-05-09T02:49:31.517Z,2.69
2023-05-09T02:50:24.236Z,2.7
2023-05-09T02:51:24.291Z,2.7
2023-05-09T02:52:24.387Z,2.74
2023-05-09T02:53:24.464Z,2.69
2023-05-09T02:54:24.213Z,2.73
2023-05-09T02:55:24.440Z,2.68
2023-05-09T02:56:24.137Z,2.69
2023-05-09T02:57:24.227Z,2.91
2023-05-09T02:58:24.290Z,2.91
2023-05-09T02:59:24.481Z,2.82
2023-05-09T03:00:24.466Z,3.09
2023-05-09T03:01:24.539Z,3.36
2023-05-09T03:02:24.331Z,3.51
2023-05-09T03:03:24.355Z,3.48
2023-05-09T03:04:24.327Z,3.59
2023-05-09T03:05:24.380Z,3.61
2023-05-09T03:06:24.439Z,3.76
2023-05-09T03:07:24.360Z,3.95
2023-05-09T03:08:24.338Z,4.15
2023-05-09T03:09:24.394Z,3.98
2023-05-09T03:10:24.435Z,4.21
2023-05-09T03:11:24.448Z,4.28
2023-05-09T03:12:24.452Z,4.03
2023-05-09T03:13:24.483Z,3.94
2023-05-09T03:14:24.716Z,3.81
2023-05-09T03:15:24.665Z,4.14
2023-05-09T03:16:24.615Z,4.17
2023-05-09T03:17:24.756Z,4.1
2023-05-09T03:18:24.732Z,4.5
2023-05-09T03:19:24.583Z,4.46
2023-05-09T03:20:26.035Z,4.64
2023-05-09T03:21:24.633Z,4.84
2023-05-09T03:22:24.632Z,4.76
2023-05-09T03:23:24.640Z,4.86
2023-05-09T03:24:26.389Z,4.97
2023-05-09T03:25:24.919Z,4.99
2023-05-09T03:26:24.966Z,4.92
2023-05-09T03:27:24.696Z,4.94
2023-05-09T03:28:24.700Z,5.04
2023-05-09T03:29:24.927Z,5.08
2023-05-09T03:30:24.849Z,5.12
2023-05-09T03:31:24.771Z,4.89
2023-05-09T03:32:24.844Z,5.17
2023-05-09T03:33:24.731Z,5.35
2023-05-09T03:34:24.782Z,5.51
2023-05-09T03:35:24.789Z,5.71
2023-05-09T03:36:24.849Z,5.51
2023-05-09T03:37:26.916Z,5.4
2023-05-09T03:38:24.839Z,5.39
2023-05-09T03:39:25.092Z,5.54
2023-05-09T03:40:24.938Z,5.69
2023-05-09T03:41:25.097Z,5.7
2023-05-09T03:42:25.032Z,5.98
2023-05-09T03:43:24.916Z,5.97
2023-05-09T03:44:25.435Z,6.06
2023-05-09T03:45:24.985Z,6.17
2023-05-09T03:46:25.004Z,6.66
2023-05-09T03:47:25.172Z,6.77
2023-05-09T03:48:25.239Z,6.91
2023-05-09T03:49:25.156Z,7.11
2023-05-09T03:50:25.049Z,7.2
2023-05-09T03:51:25.057Z,7.22
2023-05-09T03:52:25.067Z,7.13
2023-05-09T03:53:25.034Z,7.2
2023-05-09T03:54:25.022Z,7.32
2023-05-09T03:55:25.122Z,7.23
2023-05-09T03:56:25.165Z,7.3
2023-05-09T03:57:25.137Z,7.4
2023-05-09T03:58:25.386Z,7.48
2023-05-09T03:59:25.150Z,7.56
2023-05-09T04:00:25.216Z,7.51
2023-05-09T04:01:25.370Z,7.61
2023-05-09T04:02:25.353Z,7.63
2023-05-09T04:03:25.280Z,7.49
2023-05-09T04:04:25.372Z,7.59
2023-05-09T04:05:25.359Z,7.69
2023-05-09T04:06:25.240Z,7.69
2023-05-09T04:07:25.469Z,7.8
2023-05-09T04:08:25.490Z,7.79
2023-05-09T04:09:25.475Z,7.8
2023-05-09T04:10:25.270Z,7.9
2023-05-09T04:11:25.252Z,7.86
2023-05-09T04:12:25.307Z,7.88
2023-05-09T04:13:25.471Z,7.94
2023-05-09T04:14:25.577Z,8.06
2023-05-09T04:15:25.370Z,8.01
2023-05-09T04:16:25.609Z,8.25
2023-05-09T04:17:25.425Z,8.22
2023-05-09T04:18:25.440Z,8.17
2023-05-09T04:19:25.602Z,8.08
2023-05-09T04:20:25.635Z,8.16
2023-05-09T04:21:25.434Z,8.27
2023-05-09T04:22:25.488Z,8.32
2023-05-09T04:23:25.837Z,8.39
2023-05-09T04:24:25.475Z,8.33
2023-05-09T04:25:25.574Z,8.35
2023-05-09T04:26:25.504Z,8.36
2023-05-09T04:27:25.553Z,8.33
2023-05-09T04:28:25.527Z,8.33
2023-05-09T04:29:25.538Z,8.29
2023-05-09T04:30:25.778Z,8.5
2023-05-09T04:31:25.686Z,8.57
2023-05-09T04:32:25.554Z,8.49
2023-05-09T04:33:25.589Z,8.42
2023-05-09T04:34:25.802Z,8.44
2023-05-09T04:35:25.604Z,8.55
2023-05-09T04:36:25.641Z,8.64
2023-05-09T04:37:25.650Z,8.68
2023-05-09T04:38:25.637Z,8.68
2023-05-09T04:39:25.648Z,8.72
2023-05-09T04:40:27.053Z,8.78
2023-05-09T04:41:25.681Z,8.72
2023-05-09T04:42:25.959Z,8.68
2023-05-09T04:43:25.853Z,8.67
2023-05-09T04:44:25.707Z,8.73
2023-05-09T04:45:25.817Z,8.73
2023-05-09T04:46:25.971Z,8.72
2023-05-09T04:47:26.045Z,8.75
2023-05-09T04:48:25.778Z,8.79
2023-05-09T04:49:25.783Z,8.74
2023-05-09T04:50:25.864Z,8.78
2023-05-09T04:51:26.065Z,8.81
2023-05-09T04:52:25.829Z,8.85
2023-05-09T04:53:25.842Z,8.9
2023-05-09T04:54:25.868Z,9.01
2023-05-09T04:55:25.865Z,9.03
2023-05-09T04:56:26.146Z,9.06
2023-05-09T04:57:26.022Z,9.15
2023-05-09T04:58:25.930Z,9.13
2023-05-09T04:59:26.104Z,9.17
2023-05-09T05:00:25.970Z,9.26
2023-05-09T05:01:26.019Z,9.28
2023-05-09T05:02:26.077Z,9.33
2023-05-09T05:03:26.188Z,9.28
2023-05-09T05:04:26.221Z,9.28
2023-05-09T05:05:26.439Z,9.43
2023-05-09T05:06:26.054Z,9.46
2023-05-09T05:07:26.013Z,9.4
2023-05-09T05:08:26.063Z,9.38
2023-05-09T05:09:26.186Z,9.57
2023-05-09T05:10:26.105Z,9.53
2023-05-09T05:11:26.155Z,9.54
2023-05-09T05:12:26.065Z,9.67
2023-05-09T05:13:26.331Z,9.75
2023-05-09T05:14:26.519Z,9.88
2023-05-09T05:15:26.105Z,9.85
2023-05-09T05:16:26.163Z,9.81
2023-05-09T05:17:26.148Z,9.88
2023-05-09T05:18:26.168Z,9.88
2023-05-09T05:19:26.258Z,10.05
2023-05-09T05:20:26.208Z,10.09
2023-05-09T05:21:26.233Z,10.05
2023-05-09T05:22:26.260Z,10.01
2023-05-09T05:23:26.232Z,10.04
2023-05-09T05:24:26.278Z,10.08
2023-05-09T05:25:26.520Z,10.09
2023-05-09T05:26:26.306Z,10.21
2023-05-09T05:27:26.408Z,10.14
2023-05-09T05:28:26.484Z,10.12
2023-05-09T05:29:26.455Z,10.11
2023-05-09T05:30:26.327Z,10.14
2023-05-09T05:31:26.749Z,10.14
2023-05-09T05:32:26.587Z,10.2
2023-05-09T05:33:26.759Z,10.24
2023-05-09T05:34:26.362Z,10.2
2023-05-09T05:35:26.619Z,10.25
2023-05-09T05:36:26.544Z,10.5
2023-05-09T05:37:26.464Z,10.58
2023-05-09T05:38:26.461Z,10.47
2023-05-09T05:39:26.450Z,10.56
2023-05-09T05:40:26.509Z,10.55
2023-05-09T05:41:26.487Z,10.49
2023-05-09T05:42:26.701Z,10.56
2023-05-09T05:43:27.039Z,10.56
2023-05-09T05:44:26.757Z,10.64
2023-05-09T05:45:26.533Z,10.75
2023-05-09T05:46:26.544Z,10.82
2023-05-09T05:47:26.655Z,10.76
2023-05-09T05:48:26.571Z,10.91
2023-05-09T05:49:26.556Z,10.96
2023-05-09T05:50:26.626Z,11.15
2023-05-09T05:51:26.808Z,11.39
2023-05-09T05:52:26.599Z,11.3
2023-05-09T05:53:26.633Z,11.19
2023-05-09T05:54:26.672Z,11.36
2023-05-09T05:55:26.675Z,11.43
2023-05-09T05:56:27.285Z,11.39
2023-05-09T05:57:26.722Z,11.42
2023-05-09T05:58:26.743Z,11.5
2023-05-09T05:59:26.737Z,11.56
2023-05-09T06:00:26.748Z,11.76
2023-05-09T06:01:27.248Z,11.65
2023-05-09T06:02:26.843Z,11.71
2023-05-09T06:03:27.013Z,11.83
2023-05-09T06:04:26.757Z,11.83
2023-05-09T06:05:26.996Z,11.88
2023-05-09T06:06:27.017Z,11.98
2023-05-09T06:07:27.190Z,11.93
2023-05-09T06:08:26.813Z,12.08
2023-05-09T06:09:26.871Z,11.98
2023-05-09T06:10:27.064Z,11.97
2023-05-09T06:11:26.874Z,11.95
2023-05-09T06:12:28.067Z,11.99
2023-05-09T06:13:26.999Z,12.07
2023-05-09T06:14:26.928Z,12.19
2023-05-09T06:15:26.951Z,12.15
2023-05-09T06:16:27.535Z,12.07
2023-05-09T06:17:26.957Z,12.28
2023-05-09T06:18:27.034Z,12.29
2023-05-09T06:19:27.079Z,12.3
2023-05-09T06:20:27.024Z,12.36
2023-05-09T06:21:26.988Z,12.43
2023-05-09T06:22:27.033Z,12.29
2023-05-09T06:23:27.022Z,12.45
2023-05-09T06:24:35.882Z,12.54
2023-05-09T06:25:28.348Z,12.6
2023-05-09T06:26:28.487Z,12.62
2023-05-09T06:27:28.349Z,12.62
2023-05-09T06:28:28.486Z,12.49
2023-05-09T06:29:28.383Z,12.68
2023-05-09T06:30:28.398Z,12.67
2023-05-09T06:31:28.411Z,12.56
2023-05-09T06:32:28.597Z,12.52
2023-05-09T06:33:28.376Z,12.69
2023-05-09T06:34:28.485Z,12.56
2023-05-09T06:35:28.595Z,12.71
2023-05-09T06:36:28.600Z,12.73
2023-05-09T06:37:32.475Z,12.62
2023-05-09T06:38:29.172Z,12.83
2023-05-09T06:39:29.226Z,12.81
2023-05-09T06:40:29.190Z,12.88
2023-05-09T06:41:29.411Z,12.75
2023-05-09T06:42:29.430Z,12.79
2023-05-09T06:43:29.216Z,12.71
2023-05-09T06:44:29.395Z,12.7
2023-05-09T06:45:29.469Z,12.66
2023-05-09T06:46:29.530Z,12.81
2023-05-09T06:47:29.251Z,12.83
2023-05-09T06:48:29.530Z,12.82
2023-05-09T06:49:29.470Z,12.69
2023-05-09T06:50:31.466Z,12.69
2023-05-09T06:51:29.783Z,12.99
2023-05-09T06:52:29.601Z,12.95
2023-05-09T06:53:29.817Z,12.87
2023-05-09T06:54:29.648Z,12.95
2023-05-09T06:55:29.788Z,13.33
2023-05-09T06:56:29.667Z,13.01
2023-05-09T06:57:30.223Z,13.16
2023-05-09T06:58:29.797Z,13.29
2023-05-09T06:59:29.713Z,13.4
2023-05-09T07:00:30.060Z,13.24
2023-05-09T07:01:29.761Z,13.2
2023-05-09T07:02:29.694Z,13.62
2023-05-09T07:03:30.050Z,13.2
2023-05-09T07:04:29.813Z,13.08
2023-05-09T07:05:30.242Z,13.31
2023-05-09T07:06:29.793Z,12.89
2023-05-09T07:07:29.791Z,12.88
2023-05-09T07:08:29.831Z,13.2
2023-05-09T07:09:29.817Z,13.45
2023-05-09T07:10:30.213Z,13.86
2023-05-09T07:11:34.037Z,13.86
2023-05-09T07:12:31.162Z,13.88
2023-05-09T07:13:30.728Z,13.91
2023-05-09T07:14:30.734Z,13.56
2023-05-09T07:15:41.162Z,13.83
2023-05-09T07:16:35.783Z,13.43
2023-05-09T07:17:34.295Z,13.35
2023-05-09T07:18:34.055Z,13.07
2023-05-09T07:19:34.385Z,12.99
2023-05-09T07:20:34.165Z,13.18
2023-05-09T07:21:34.193Z,13.34
2023-05-09T07:22:36.440Z,13.55
2023-05-09T07:23:34.290Z,13.61
2023-05-09T07:24:34.295Z,13.55
2023-05-09T07:25:34.581Z,13.5
2023-05-09T07:26:37.401Z,13.54
2023-05-09T07:27:35.121Z,13.6
2023-05-09T07:28:34.343Z,14.1
2023-05-09T07:29:34.604Z,13.7
2023-05-09T07:30:34.466Z,13.48
2023-05-09T07:31:36.759Z,13.59
2023-05-09T07:32:35.073Z,13.75
2023-05-09T07:33:34.702Z,13.8
2023-05-09T07:34:35.469Z,13.99
2023-05-09T07:35:34.552Z,13.8
2023-05-09T07:36:35.498Z,13.81
2023-05-09T07:37:34.492Z,13.81
2023-05-09T07:38:34.483Z,13.7
2023-05-09T07:39:34.518Z,14.01
2023-05-09T07:40:34.524Z,13.58
2023-05-09T07:41:34.722Z,13.72
2023-05-09T07:42:34.788Z,13.65
2023-05-09T07:43:34.938Z,13.65
2023-05-09T07:44:34.610Z,13.74
2023-05-09T07:45:34.784Z,14.01
2023-05-09T07:46:37.423Z,14.03
2023-05-09T07:47:34.817Z,13.76
2023-05-09T07:48:34.632Z,14
2023-05-09T07:49:34.969Z,14.41
2023-05-09T07:50:34.893Z,14.84
2023-05-09T07:51:34.953Z,14.26
2023-05-09T07:52:34.795Z,14.27
2023-05-09T07:53:34.913Z,14.13
2023-05-09T07:54:34.762Z,14.13
2023-05-09T07:55:34.781Z,14.37
2023-05-09T07:56:34.844Z,13.88
2023-05-09T07:57:34.947Z,13.68
2023-05-09T07:58:34.842Z,13.64
2023-05-09T07:59:34.815Z,13.97
2023-05-09T08:00:35.476Z,13.98
2023-05-09T08:01:35.492Z,14.35
2023-05-09T08:02:35.762Z,14.02
2023-05-09T08:03:35.838Z,14.13
2023-05-09T08:04:35.530Z,14.52
2023-05-09T08:05:35.863Z,14.59
2023-05-09T08:06:35.768Z,14.73
2023-05-09T08:07:35.663Z,14.96
2023-05-09T08:08:36.647Z,14.75
2023-05-09T08:09:35.614Z,15.09
2023-05-09T08:10:35.780Z,14.34
2023-05-09T08:11:35.872Z,14.22
2023-05-09T08:12:35.602Z,14.24
2023-05-09T08:13:36.209Z,14.46
2023-05-09T08:14:35.618Z,14.1
2023-05-09T08:15:35.686Z,14.19
2023-05-09T08:16:35.733Z,14.51
2023-05-09T08:17:35.976Z,14.92
2023-05-09T08:18:35.737Z,14.69
2023-05-09T08:19:35.932Z,14.19
2023-05-09T08:20:35.675Z,14.38
2023-05-09T08:21:35.758Z,14.26
2023-05-09T08:22:35.761Z,14.19
2023-05-09T08:23:35.920Z,14.05
2023-05-09T08:24:40.907Z,14.28
2023-05-09T08:25:37.623Z,14.49
2023-05-09T08:26:37.561Z,14.75
2023-05-09T08:27:38.028Z,14.32
2023-05-09T08:28:37.650Z,14.55
2023-05-09T08:29:37.618Z,14.66
2023-05-09T08:30:37.846Z,14.86
2023-05-09T08:31:37.755Z,14.83
2023-05-09T08:32:37.767Z,14.8
2023-05-09T08:33:39.320Z,14.8
2023-05-09T08:34:37.760Z,15.37
2023-05-09T08:35:37.730Z,14.94
2023-05-09T08:36:37.834Z,15.17
2023-05-09T08:37:37.767Z,14.83
2023-05-09T08:38:37.974Z,15.1
2023-05-09T08:39:37.800Z,14.59
2023-05-09T08:40:38.012Z,14.72
2023-05-09T08:41:38.765Z,15.08
2023-05-09T08:42:38.128Z,15.08
2023-05-09T08:43:39.690Z,15.05
2023-05-09T08:44:38.217Z,14.92
2023-05-09T08:45:50.657Z,14.95
2023-05-09T08:46:44.032Z,15.24
2023-05-09T08:47:42.516Z,15.39
2023-05-09T08:48:43.965Z,15.51
2023-05-09T08:49:42.613Z,15.18
2023-05-09T08:50:45.722Z,15.2
2023-05-09T08:51:42.860Z,14.51
2023-05-09T08:52:43.012Z,14.98
2023-05-09T08:53:43.080Z,15.68
2023-05-09T08:54:43.217Z,15.41
2023-05-09T08:55:43.001Z,15.12
2023-05-09T08:56:43.106Z,14.61
2023-05-09T08:57:42.928Z,14.65
2023-05-09T08:58:42.678Z,14.37
2023-05-09T08:59:43.219Z,14.44
2023-05-09T09:00:43.241Z,15.05
2023-05-09T09:01:44.612Z,15.63
2023-05-09T09:02:43.670Z,15.58
2023-05-09T09:03:43.315Z,15.77
2023-05-09T09:04:42.877Z,15.24
2023-05-09T09:05:43.048Z,15.17
2023-05-09T09:06:43.096Z,15.11
2023-05-09T09:07:43.685Z,14.79
2023-05-09T09:08:44.020Z,14.94
2023-05-09T09:09:45.664Z,15.09
2023-05-09T09:10:44.120Z,15.46
2023-05-09T09:11:43.519Z,15.02
2023-05-09T09:12:43.517Z,15.12
2023-05-09T09:13:43.790Z,15.28
2023-05-09T09:14:46.615Z,15.29
2023-05-09T09:15:43.875Z,15.35
2023-05-09T09:16:44.584Z,15.52
2023-05-09T09:17:43.818Z,15.81
2023-05-09T09:18:44.566Z,15.81
2023-05-09T09:19:44.584Z,16.2
2023-05-09T09:20:45.867Z,15.32
2023-05-09T09:21:45.241Z,15.24
2023-05-09T09:22:43.888Z,15.3
2023-05-09T09:23:44.010Z,15.24
2023-05-09T09:24:43.647Z,15.96
2023-05-09T09:25:45.464Z,15.24
2023-05-09T09:26:45.889Z,15.51
2023-05-09T09:27:43.486Z,15.57
2023-05-09T09:28:43.524Z,15.64
2023-05-09T09:29:43.563Z,15.91
2023-05-09T09:30:44.275Z,15.43
2023-05-09T09:31:44.654Z,15.32
2023-05-09T09:32:43.604Z,15.58
2023-05-09T09:33:43.954Z,15.81
2023-05-09T09:34:43.741Z,15.82
2023-05-09T09:35:43.608Z,15.53
2023-05-09T09:36:43.829Z,15.92
2023-05-09T09:37:43.673Z,15.38
2023-05-09T09:38:43.691Z,15.51
2023-05-09T09:39:53.332Z,15.62
2023-05-09T09:40:54.808Z,15.43
2023-05-09T09:41:46.513Z,15.82
2023-05-09T09:42:47.841Z,15.64
2023-05-09T09:43:46.518Z,15.35
2023-05-09T09:44:50.853Z,15.31
2023-05-09T09:45:50.567Z,15.7
2023-05-09T09:46:51.392Z,15.21
2023-05-09T09:47:48.735Z,14.5
2023-05-09T09:48:48.237Z,14.36
2023-05-09T09:49:48.202Z,14.3
2023-05-09T09:50:48.278Z,14.74
2023-05-09T09:51:51.273Z,14.92
2023-05-09T09:52:51.820Z,14.7
2023-05-09T09:53:48.748Z,14.67
2023-05-09T09:54:48.557Z,15.02
2023-05-09T09:55:49.549Z,15.72
2023-05-09T09:56:49.686Z,15.74
2023-05-09T09:57:48.643Z,16
2023-05-09T09:58:48.639Z,16.21
2023-05-09T09:59:58.002Z,16.26
2023-05-09T10:01:03.932Z,16.56
2023-05-09T10:01:57.606Z,16.02
2023-05-09T10:02:55.684Z,15.7
2023-05-09T10:03:54.372Z,16.18
2023-05-09T10:04:54.501Z,16.23
2023-05-09T10:06:01.187Z,16.43
2023-05-09T10:06:58.976Z,15.91
2023-05-09T10:08:01.924Z,16.42
2023-05-09T10:08:58.597Z,15.98
2023-05-09T10:09:58.678Z,15.66
2023-05-09T10:10:59.513Z,15.83
2023-05-09T10:12:02.369Z,16.26
2023-05-09T10:13:00.187Z,15.88
2023-05-09T10:13:59.078Z,16.53
2023-05-09T10:14:59.128Z,16.2
2023-05-09T10:15:59.509Z,16.24
2023-05-09T10:17:00.829Z,15.83
2023-05-09T10:18:00.634Z,16.09
2023-05-09T10:18:59.403Z,16.03
2023-05-09T10:20:01.624Z,15.63
2023-05-09T10:20:59.402Z,15.59
2023-05-09T10:22:03.373Z,15.8
2023-05-09T10:23:03.949Z,15.66
2023-05-09T10:24:02.425Z,15.96
2023-05-09T10:25:05.332Z,15.8
2023-05-09T10:27:03.798Z,16.47
2023-05-09T10:28:04.541Z,16.5
2023-05-09T10:29:07.510Z,15.78
2023-05-09T10:30:06.888Z,15.78
2023-05-09T10:32:11.939Z,16.13
2023-05-09T10:33:09.672Z,15.56
2023-05-09T10:34:10.183Z,16.09
2023-05-09T10:35:10.313Z,16.26
2023-05-09T10:36:09.013Z,16.71
2023-05-09T10:37:08.471Z,17.04
2023-05-09T10:38:09.118Z,16.43
2023-05-09T10:39:08.518Z,15.77
2023-05-09T10:40:09.022Z,15.63
2023-05-09T10:41:08.704Z,16.44
2023-05-09T10:42:08.485Z,16.7
2023-05-09T10:43:08.703Z,16.3
2023-05-09T10:44:08.517Z,16.28
2023-05-09T10:45:09.234Z,16.19
2023-05-09T10:46:09.103Z,16.35
2023-05-09T10:47:08.719Z,16.63
2023-05-09T10:48:09.061Z,16.55
2023-05-09T10:49:08.628Z,16.88
2023-05-09T10:50:10.319Z,17.28
2023-05-09T10:51:09.221Z,16.75
2023-05-09T10:52:09.045Z,17.12
2023-05-09T10:53:09.932Z,17.35
2023-05-09T10:55:12.188Z,16.55
2023-05-09T10:57:18.221Z,16.31
2023-05-09T11:02:24.802Z,16.68
2023-05-09T11:03:25.728Z,15.9
2023-05-09T11:04:24.680Z,16.92
2023-05-09T11:05:24.708Z,16.5
2023-05-09T11:07:27.217Z,16.39
2023-05-09T11:08:28.260Z,16.83
2023-05-09T11:10:41.554Z,16.81
2023-05-09T11:11:33.258Z,17.09
2023-05-09T11:12:33.258Z,16.71
2023-05-09T11:13:37.521Z,17.18
2023-05-09T11:15:51.769Z,17.35
2023-05-09T11:17:43.503Z,15.83
2023-05-09T11:18:50.171Z,15.88
2023-05-09T11:20:48.864Z,16.07
2023-05-09T11:22:52.938Z,16.43
2023-05-09T11:23:52.419Z,17.33
2023-05-09T11:24:52.134Z,16.82
2023-05-09T11:25:51.255Z,17
2023-05-09T11:26:51.154Z,16.72
2023-05-09T11:27:51.502Z,16.97
2023-05-09T11:28:52.098Z,17.46
2023-05-09T11:29:55.859Z,17.3
2023-05-09T11:30:52.915Z,17.54
2023-05-09T11:32:55.084Z,18.08
2023-05-09T11:34:00.805Z,17.83
2023-05-09T11:35:10.700Z,17.33
2023-05-09T11:38:06.320Z,17.68
2023-05-09T11:39:06.894Z,16.82
2023-05-09T11:40:06.777Z,16.71
2023-05-09T11:41:06.362Z,17.05
2023-05-09T11:42:06.046Z,17.75
2023-05-09T11:43:07.134Z,18.32
2023-05-09T11:45:09.771Z,18.47
2023-05-09T11:46:08.135Z,17.54
2023-05-09T11:47:09.173Z,17.89
2023-05-09T11:48:08.892Z,18.53
2023-05-09T11:49:09.574Z,18.2
2023-05-09T11:50:09.123Z,17.94
2023-05-09T11:51:15.736Z,17.03
2023-05-09T11:52:11.984Z,16.66
2023-05-09T11:53:11.999Z,17.21
2023-05-09T11:54:11.996Z,16.97
2023-05-09T11:55:14.297Z,18.05
2023-05-09T11:56:12.818Z,17.78
2023-05-09T11:57:12.292Z,17.87
2023-05-09T11:58:13.150Z,18.14
2023-05-09T11:59:12.093Z,17.91
2023-05-09T12:00:12.868Z,18.51
2023-05-09T12:01:12.514Z,18.2
2023-05-09T12:02:12.782Z,17.64
2023-05-09T12:03:12.407Z,17.23
2023-05-09T12:04:12.505Z,17.66
2023-05-09T12:05:14.166Z,17.76
2023-05-09T12:06:15.845Z,17.72
2023-05-09T12:07:12.274Z,17.46
2023-05-09T12:08:13.327Z,17.02
2023-05-09T12:09:12.539Z,17.11
2023-05-09T12:10:16.195Z,17.6
2023-05-09T12:11:13.007Z,17.77
2023-05-09T12:12:13.235Z,17.75
2023-05-09T12:13:13.207Z,17.83
2023-05-09T12:15:17.853Z,17.37
2023-05-09T12:16:17.732Z,17.11
2023-05-09T12:17:17.280Z,16.88
2023-05-09T12:18:17.113Z,17.3
2023-05-09T12:19:18.357Z,17.78
2023-05-09T12:20:17.241Z,17.76
2023-05-09T12:21:17.572Z,17.68
2023-05-09T12:22:17.159Z,17.97
2023-05-09T12:23:18.116Z,18.38
2023-05-09T12:24:20.757Z,18.37
2023-05-09T12:25:17.362Z,17.22
2023-05-09T12:26:17.266Z,17.73
2023-05-09T12:27:17.602Z,17.37
2023-05-09T12:28:17.662Z,17.93
2023-05-09T12:29:17.777Z,17.61
2023-05-09T12:30:17.736Z,18.11
2023-05-09T12:31:17.928Z,17.71
2023-05-09T12:32:17.859Z,18.31
2023-05-09T12:33:17.874Z,18.3
2023-05-09T12:34:17.556Z,18.4
2023-05-09T12:35:20.782Z,18.61
2023-05-09T12:36:17.583Z,17.91
2023-05-09T12:37:18.433Z,17.2
2023-05-09T12:38:21.166Z,17.29
2023-05-09T12:39:18.121Z,17.73
2023-05-09T12:40:17.472Z,18.2
2023-05-09T12:41:35.120Z,18.91
2023-05-09T12:42:18.687Z,17.61
2023-05-09T12:43:18.725Z,18.31
2023-05-09T12:45:19.585Z,18.94
2023-05-09T12:46:19.431Z,18.65
2023-05-09T12:47:18.947Z,18.05
2023-05-09T12:48:20.125Z,18.06
2023-05-09T12:49:22.424Z,18.03
2023-05-09T12:50:19.220Z,18.24
2023-05-09T12:51:19.627Z,17.83
2023-05-09T12:52:19.138Z,18.88
2023-05-09T12:53:26.184Z,18.12
2023-05-09T12:54:23.713Z,18.7
2023-05-09T12:55:22.464Z,17.76
2023-05-09T12:56:22.482Z,18.52
2023-05-09T12:57:23.275Z,18.24
2023-05-09T12:58:22.501Z,18.47
2023-05-09T12:59:26.557Z,18.06
2023-05-09T13:00:22.803Z,18.25
2023-05-09T13:01:29.309Z,17.97
2023-05-09T13:02:26.485Z,17.92
2023-05-09T13:03:27.036Z,18.51
2023-05-09T13:04:26.998Z,18.79
2023-05-09T13:05:26.013Z,18.47
2023-05-09T13:06:26.026Z,18.35
2023-05-09T13:07:26.057Z,17.22
2023-05-09T13:08:26.409Z,17.43
2023-05-09T13:09:26.597Z,18.19
2023-05-09T13:10:26.898Z,18.86
2023-05-09T13:11:26.315Z,18.38
2023-05-09T13:12:26.172Z,18.64
2023-05-09T13:13:26.806Z,18.19
2023-05-09T13:14:26.321Z,17.54
2023-05-09T13:15:26.926Z,17.71
2023-05-09T13:16:26.262Z,17.57
2023-05-09T13:17:26.287Z,17.45
2023-05-09T13:18:26.477Z,18.07
2023-05-09T13:19:26.401Z,18.41
2023-05-09T13:20:26.270Z,18.05
2023-05-09T13:21:26.240Z,18.91
2023-05-09T13:22:26.325Z,18.08
2023-05-09T13:23:26.279Z,18
2023-05-09T13:24:26.285Z,17.92
2023-05-09T13:25:26.399Z,18.15
2023-05-09T13:26:26.378Z,18.6
2023-05-09T13:27:26.392Z,18.34
2023-05-09T13:28:26.377Z,18.46
2023-05-09T13:29:26.385Z,18.15
2023-05-09T13:30:26.843Z,18.24
2023-05-09T13:31:26.448Z,18.22
2023-05-09T13:32:26.563Z,18.4
2023-05-09T13:33:26.924Z,18.12
2023-05-09T13:34:26.465Z,18.45
2023-05-09T13:35:27.010Z,18.06
2023-05-09T13:36:26.703Z,18.28
2023-05-09T13:37:26.677Z,18.22
2023-05-09T13:38:26.911Z,18.6
2023-05-09T13:39:26.545Z,18.98
2023-05-09T13:40:26.743Z,18.92
2023-05-09T13:41:26.785Z,19.19
2023-05-09T13:42:27.270Z,18.07